Create Tblcommutelog Verified Points Advance Search
| # | Trip ID | Id Commuter | Trip Date | Trip Num | Current Lat | Current Lng | Delta Distance | Current Time | Activity | Activity Confidence | Current Speed | |
|---|---|---|---|---|---|---|---|---|---|---|---|---|
| 69881 | 250605_753953_16495306_0836 | 753953 | (not set) | (not set) | 38.861522694187 | -77.12904837383 | 1.5636 | 2025-06-05 12:50:25.426 | in_vehicle | 100 | -0.44703925898772 | |
| 69882 | 250605_781273_16424909_0839 | 781273 | (not set) | (not set) | 38.987231884668 | -77.098853330532 | 0.3153 | 2025-06-05 12:51:19.49 | on_foot | 100 | -0.44703925898772 | |
| 69883 | 250605_781273_16424909_0839 | 781273 | (not set) | (not set) | 38.987396807936 | -77.098945359018 | 0.3321 | 2025-06-05 12:51:19.771 | on_foot | 100 | -0.44703925898772 | |
| 69884 | 250605_780947_0_0722 | 780947 | (not set) | (not set) | 38.948187682302 | -77.341160121012 | 32.0406 | 2025-06-05 12:51:20.53 | still | 33 | 0.0044703925898772 | |
| 69885 | 250605_780745_16421763_0744 | 780745 | (not set) | (not set) | 38.933592986172 | -77.22838989445 | 27.1244 | 2025-06-05 12:51:23.253 | in_vehicle | 100 | 11.511260918934 | |
| 69886 | 250605_754743_16500235_0844 | 754743 | (not set) | (not set) | 38.899732141457 | -77.020595509335 | 0.1972 | 2025-06-05 12:51:27.253 | on_foot | 100 | 0.41127611826871 | |
| 69887 | 250605_766126_6452825_0848 | 766126 | (not set) | (not set) | 38.945978529233 | -76.945896242436 | 0.5378 | 2025-06-05 12:51:28.243 | on_bicycle | 100 | 3.5450213237727 | |
| 69888 | 250605_782103_16513469_0743 | 782103 | (not set) | (not set) | 38.995981069023 | -76.889973222903 | 14.2003 | 2025-06-05 12:51:28.249 | on_bicycle | 100 | 5.5566979892174 | |
| 69889 | 250605_782325_6461772_0840 | 782325 | (not set) | (not set) | 38.92111172629 | -77.042194049233 | 0.6759 | 2025-06-05 12:51:28.358 | in_vehicle | 100 | 2.7179986946454 | |
| 69890 | 250605_769309_6461772_0826 | 769309 | (not set) | (not set) | 38.933710573541 | -77.22660865639 | 12.7649 | 2025-06-05 12:51:29.193 | in_vehicle | 100 | 12.266757266623 | |
| 69891 | 250605_781550_16430248_0815 | 781550 | (not set) | (not set) | 38.909928429708 | -77.044035874746 | 2.6893 | 2025-06-05 12:51:40.842 | on_foot | 100 | -0.44703925898772 | |
| 69892 | 250605_782103_16513469_0743 | 782103 | (not set) | (not set) | 38.996115584015 | -76.891784518724 | 14.2982 | 2025-06-05 12:51:43.229 | on_bicycle | 100 | 4.5821524046242 | |
| 69893 | 250605_753800_6439769_0820 | 753800 | (not set) | (not set) | 38.922788094855 | -76.995681017922 | 4.7293 | 2025-06-05 12:51:43.283 | on_foot | 100 | 2.6107092724883 | |
| 69894 | 250605_785112_6438355_0827 | 785112 | (not set) | (not set) | 38.961672567181 | -77.086934279368 | 0.4317 | 2025-06-05 12:51:44.184 | on_foot | 100 | 0.56326946632453 | |
| 69895 | 250605_782325_6461772_0840 | 782325 | (not set) | (not set) | 38.920194921362 | -77.041878014514 | 0.7414 | 2025-06-05 12:51:45.233 | in_vehicle | 100 | 2.7045875168757 | |
| 69896 | 250605_784414_16503658_0817 | 784414 | (not set) | (not set) | 38.901330221197 | -77.040673423311 | 11.6649 | 2025-06-05 12:51:46.266 | in_vehicle | 100 | -0.44703925898772 | |
| 69897 | 250605_780745_16421763_0744 | 780745 | (not set) | (not set) | 38.933820558333 | -77.220772637588 | 27.5352 | 2025-06-05 12:51:47.188 | in_vehicle | 100 | 12.00747449641 | |
| 69898 | 250605_752246_16512995_0844 | 752246 | (not set) | (not set) | 38.838071929907 | -76.862724719071 | 0.9803 | 2025-06-05 12:51:49.381 | in_vehicle | 100 | 4.7922608563484 | |
| 69899 | 250605_698742_16447752_0831 | 698742 | (not set) | (not set) | 38.805782380534 | -77.086278646294 | 7.6716 | 2025-06-05 12:51:51.186 | in_vehicle | 100 | 3.0041038203975 | |
| 69900 | 250605_753953_16495306_0836 | 753953 | (not set) | (not set) | 38.87322295009 | -77.119158029397 | 2.6193 | 2025-06-05 12:51:52.221 | in_vehicle | 100 | 1.931209598827 |